Terminal Aerodrome Forecast
Issued by NWS San Angelo, TX

Home | Current Version | Previous Version | Text Only | Print | Product List | Glossary On
Versions: 1 2 3 4 5 6 7 8 9 10 11 12
336
FTUS44 KSJT 131130
TAFSJT
TAF
KSJT 131130Z 1312/1412 12009KT P6SM SKC
     FM131900 17012G19KT P6SM SKC
     FM140000 17011KT P6SM SKC
     FM140800 19014G22KT P6SM SCT020=

USA.gov is the U.S. government's official web portal to all federal, state and local government web resources and services.